Weather at General Mitchell International Airport

Public forecast

Using degrees Fahrenheit for public forecast. Weather courtesy of forecast.io.

Current aviation weather report (METAR) for General Mitchell International Airport

2024/06/22 09:52 (retrieved 30 minutes ago)

KMKE 220952Z 16004KT 8SM -RA FEW028 SCT110 21/19 A2998 RMK AO2 LTG DSNT NE AND E AND SW RAB12 SLP148 P0002 T02060194

Aviation forecast (TAF) for General Mitchell International Airport

2024/06/22 09:15 Ammendment (retrieved 1 hour ago)

TAF AMD KMKE 220912Z 2209/2312 VRB05KT 3SM -RA BR SCT015 OVC035 FM221500 20007KT P6SM OVC023 FM230000 21013G20KT 2SM +TSRA BR OVC035CB FM230300 22011KT 5SM SHRA BR OVC017 FM230500 24010KT P6SM BKN009